In Rescue
 
Open Full Screen Window  High Contrast Mode
July 23, 2019 1:48 AM EDT
Weather Information
Wind Direction
  ---
Wind Speed
  00 kt (0 mph)
Wind Gust
  00 kt (0 mph)
Altimeter
30.03 in
Visibility
10 SM
Temperature
16° C
61° F
Dewpoint
15° C
59° F
Humidity
94%
Sky Condition
Scattered @ 3,700 ft
VFR

METAR KAXV 230548Z AUTO 00000KT 10SM SCT037 16/15 A3003 RMK AO2

FAA Disclaimer: The data displayed is for advisory purposes only and is not to be used for flight planning or operations.